Time;durP1;ratioP1;P1;durP2;ratioP2;P2;SDS_P1;SDS_P2;PMS_P1;PMS_P2;Temp;Humidity;BMP_temperature;BMP_pressure;BME280_temperature;BME280_humidity;BME280_pressure;Samples;Min_cycle;Max_cycle;Signal;HPM_P1;HPM_P2
2022/03/02 00:00:24;;;;;;;45.10;17.33;;;;;;;;;;5038423;28;20155;-59
2022/03/02 00:02:52;;;;;;;40.67;16.52;;;;;;;;;;5036713;28;20191;-60
2022/03/02 00:05:17;;;;;;;40.38;17.40;;;;;;;;;;5033735;28;20032;-59
2022/03/02 00:07:45;;;;;;;38.25;16.20;;;;;;;;;;5035270;28;20048;-60
2022/03/02 00:10:11;;;;;;;34.88;15.50;;;;;;;;;;5018419;28;20077;-59
2022/03/02 00:12:41;;;;;;;47.90;17.98;;;;;;;;;;5038101;28;20545;-59
2022/03/02 00:15:09;;;;;;;39.75;16.00;;;;;;;;;;5040392;28;20043;-59
2022/03/02 00:17:37;;;;;;;42.95;15.82;;;;;;;;;;5029143;28;20041;-59
2022/03/02 00:20:05;;;;;;;42.25;16.05;;;;;;;;;;5035750;28;20039;-59
2022/03/02 00:22:33;;;;;;;39.35;16.77;;;;;;;;;;5038235;28;20052;-59
2022/03/02 00:25:01;;;;;;;40.30;16.77;;;;;;;;;;5034412;28;20029;-61
2022/03/02 00:27:27;;;;;;;42.10;16.25;;;;;;;;;;5034227;28;20049;-59
2022/03/02 00:29:52;;;;;;;44.10;18.20;;;;;;;;;;5036466;28;20125;-59
2022/03/02 00:32:20;;;;;;;46.70;17.70;;;;;;;;;;5035902;28;20045;-60
2022/03/02 00:34:46;;;;;;;37.30;15.95;;;;;;;;;;5033808;28;20040;-60
2022/03/02 00:37:14;;;;;;;45.35;17.67;;;;;;;;;;5011147;28;20047;-59
2022/03/02 00:39:43;;;;;;;43.05;18.73;;;;;;;;;;5037695;28;21947;-61
2022/03/02 00:42:09;;;;;;;44.35;17.70;;;;;;;;;;5036213;28;20040;-60
2022/03/02 00:44:35;;;;;;;48.83;17.85;;;;;;;;;;5036763;28;20043;-60
2022/03/02 00:47:06;;;;;;;40.40;16.55;;;;;;;;;;5035285;28;20033;-60
2022/03/02 00:49:33;;;;;;;46.33;17.58;;;;;;;;;;5037022;28;20645;-60
2022/03/02 00:52:02;;;;;;;40.45;16.70;;;;;;;;;;5037975;28;21421;-60
2022/03/02 00:54:33;;;;;;;45.55;16.88;;;;;;;;;;5035802;28;20165;-60
2022/03/02 00:57:01;;;;;;;45.92;17.25;;;;;;;;;;5035262;28;20047;-60
2022/03/02 00:59:31;;;;;;;42.22;16.92;;;;;;;;;;5035886;28;20044;-60
2022/03/02 01:01:56;;;;;;;50.70;18.15;;;;;;;;;;5031257;28;20521;-61
2022/03/02 01:04:22;;;;;;;44.97;17.90;;;;;;;;;;5036037;28;20068;-60
2022/03/02 01:06:47;;;;;;;46.53;19.13;;;;;;;;;;5035828;28;20744;-60
2022/03/02 01:09:15;;;;;;;46.60;18.20;;;;;;;;;;5038806;28;20033;-60
2022/03/02 01:11:41;;;;;;;41.83;17.90;;;;;;;;;;5037831;28;20043;-60
2022/03/02 01:14:06;;;;;;;49.30;19.48;;;;;;;;;;5036728;28;20041;-60
2022/03/02 01:16:33;;;;;;;44.70;18.35;;;;;;;;;;5038081;28;20033;-60
2022/03/02 01:19:03;;;;;;;43.95;19.15;;;;;;;;;;5037359;28;20133;-59
2022/03/02 01:21:31;;;;;;;47.35;18.80;;;;;;;;;;5036988;28;20160;-60
2022/03/02 01:24:02;;;;;;;46.25;17.95;;;;;;;;;;5036751;28;20605;-60
2022/03/02 01:26:29;;;;;;;49.88;20.10;;;;;;;;;;5003051;28;20098;-60
2022/03/02 01:28:57;;;;;;;57.03;20.90;;;;;;;;;;5035693;28;20032;-60
2022/03/02 01:31:26;;;;;;;45.72;17.83;;;;;;;;;;5037366;28;20036;-60
2022/03/02 01:33:56;;;;;;;41.88;18.25;;;;;;;;;;5034418;28;20383;-60
2022/03/02 01:36:24;;;;;;;53.38;20.27;;;;;;;;;;5042356;28;20506;-59
2022/03/02 01:38:50;;;;;;;46.15;20.05;;;;;;;;;;5033222;28;20050;-60
2022/03/02 01:41:21;;;;;;;49.55;20.15;;;;;;;;;;5033935;28;20139;-60
2022/03/02 01:43:47;;;;;;;45.60;19.00;;;;;;;;;;5051011;28;20888;-60
2022/03/02 01:46:19;;;;;;;50.03;19.38;;;;;;;;;;5033626;28;20033;-60
2022/03/02 01:48:47;;;;;;;50.13;19.60;;;;;;;;;;5034076;28;20040;-61
2022/03/02 01:51:15;;;;;;;51.35;18.42;;;;;;;;;;5040042;28;20055;-61
2022/03/02 01:53:41;;;;;;;45.60;18.52;;;;;;;;;;5043188;28;20112;-60
2022/03/02 01:56:09;;;;;;;40.00;18.17;;;;;;;;;;5039247;28;20031;-59
2022/03/02 01:58:35;;;;;;;46.08;19.48;;;;;;;;;;5040289;28;20043;-59
2022/03/02 02:01:04;;;;;;;42.20;18.42;;;;;;;;;;5025083;28;20365;-59
2022/03/02 02:03:33;;;;;;;51.53;19.95;;;;;;;;;;5052241;28;20053;-60
2022/03/02 02:06:00;;;;;;;49.90;18.67;;;;;;;;;;5040026;28;20028;-60
2022/03/02 02:08:28;;;;;;;49.80;19.15;;;;;;;;;;5024024;28;20115;-60
2022/03/02 02:10:58;;;;;;;49.70;18.75;;;;;;;;;;5039652;28;20044;-60
2022/03/02 02:13:32;;;;;;;48.10;18.60;;;;;;;;;;5044226;28;20069;-60
2022/03/02 02:15:59;;;;;;;51.33;21.40;;;;;;;;;;5041504;28;20060;-60
2022/03/02 02:18:28;;;;;;;57.10;22.10;;;;;;;;;;5038642;28;20054;-60
2022/03/02 02:20:59;;;;;;;60.60;22.40;;;;;;;;;;5039687;28;20166;-60
2022/03/02 02:23:27;;;;;;;48.80;19.48;;;;;;;;;;5038898;28;20032;-61
2022/03/02 02:25:55;;;;;;;55.72;21.05;;;;;;;;;;5037149;28;20039;-61
2022/03/02 02:28:25;;;;;;;57.63;22.05;;;;;;;;;;5039584;28;20293;-60
2022/03/02 02:30:57;;;;;;;54.60;21.45;;;;;;;;;;5039827;28;22059;-62
2022/03/02 02:33:23;;;;;;;49.97;20.20;;;;;;;;;;5045740;28;20063;-60
2022/03/02 02:35:51;;;;;;;56.08;21.00;;;;;;;;;;5042375;28;20419;-60
2022/03/02 02:38:17;;;;;;;55.17;19.60;;;;;;;;;;5041976;28;20059;-60
2022/03/02 02:40:45;;;;;;;60.25;23.08;;;;;;;;;;5035445;28;20071;-60
2022/03/02 02:43:15;;;;;;;60.00;22.13;;;;;;;;;;5038401;28;20032;-60
2022/03/02 02:45:43;;;;;;;57.65;21.00;;;;;;;;;;5038751;28;20100;-60
2022/03/02 02:48:09;;;;;;;53.15;20.98;;;;;;;;;;5041126;28;20090;-59
2022/03/02 02:50:37;;;;;;;62.08;22.35;;;;;;;;;;5040231;28;20562;-60
2022/03/02 02:53:10;;;;;;;58.50;22.95;;;;;;;;;;5032326;28;20040;-60
2022/03/02 02:55:36;;;;;;;62.85;22.25;;;;;;;;;;5026183;28;20763;-59
2022/03/02 02:58:02;;;;;;;61.13;21.85;;;;;;;;;;5041243;28;20127;-60
2022/03/02 03:00:30;;;;;;;55.17;20.40;;;;;;;;;;5038661;28;20709;-58
2022/03/02 03:02:58;;;;;;;65.78;23.42;;;;;;;;;;5046081;28;20724;-59
2022/03/02 03:05:29;;;;;;;68.15;24.20;;;;;;;;;;5037860;28;20029;-60
2022/03/02 03:07:54;;;;;;;78.22;25.42;;;;;;;;;;5027132;28;20078;-60
2022/03/02 03:10:25;;;;;;;58.03;23.00;;;;;;;;;;5010072;28;20025;-60
2022/03/02 03:12:51;;;;;;;70.85;24.42;;;;;;;;;;5046435;28;20032;-60
2022/03/02 03:15:21;;;;;;;65.53;23.65;;;;;;;;;;5046126;28;20047;-59
2022/03/02 03:17:47;;;;;;;61.20;23.35;;;;;;;;;;5020550;28;20091;-59
2022/03/02 03:20:15;;;;;;;55.53;22.80;;;;;;;;;;5033080;28;20031;-59
2022/03/02 03:22:40;;;;;;;67.45;24.00;;;;;;;;;;5038952;28;20028;-60
2022/03/02 03:25:09;;;;;;;67.45;22.77;;;;;;;;;;5037540;28;20652;-60
2022/03/02 03:27:35;;;;;;;63.58;23.80;;;;;;;;;;5038373;28;20029;-60
2022/03/02 03:30:01;;;;;;;68.93;24.25;;;;;;;;;;5038653;28;20045;-59
2022/03/02 03:32:27;;;;;;;69.00;23.27;;;;;;;;;;5038610;28;21779;-60
2022/03/02 03:34:56;;;;;;;59.85;22.35;;;;;;;;;;5038276;28;20044;-60
2022/03/02 03:37:22;;;;;;;66.30;22.67;;;;;;;;;;5040141;28;20494;-60
2022/03/02 03:39:50;;;;;;;59.25;21.48;;;;;;;;;;5053443;28;20041;-60
2022/03/02 03:42:16;;;;;;;63.38;22.05;;;;;;;;;;5039401;28;20056;-60
2022/03/02 03:44:44;;;;;;;61.92;21.90;;;;;;;;;;5022965;28;20725;-60
2022/03/02 03:47:10;;;;;;;64.53;22.23;;;;;;;;;;5035905;28;20040;-61
2022/03/02 03:49:35;;;;;;;62.35;22.23;;;;;;;;;;5038840;28;20052;-59
2022/03/02 03:52:04;;;;;;;67.15;24.05;;;;;;;;;;5038232;28;20065;-59
2022/03/02 03:54:29;;;;;;;59.88;21.60;;;;;;;;;;5042262;28;20826;-60
2022/03/02 03:57:02;;;;;;;70.35;25.60;;;;;;;;;;5035809;28;20113;-60
2022/03/02 03:59:30;;;;;;;61.80;22.55;;;;;;;;;;5036238;28;20123;-60
2022/03/02 04:02:00;;;;;;;67.95;22.35;;;;;;;;;;5039192;28;20047;-60
2022/03/02 04:04:25;;;;;;;62.60;21.13;;;;;;;;;;5039450;28;20025;-60
2022/03/02 04:06:53;;;;;;;65.95;23.15;;;;;;;;;;5037831;28;20049;-60
2022/03/02 04:09:19;;;;;;;60.78;22.90;;;;;;;;;;5035649;28;20412;-60
2022/03/02 04:11:44;;;;;;;64.57;24.05;;;;;;;;;;5045512;28;20505;-60
2022/03/02 04:14:10;;;;;;;64.63;22.67;;;;;;;;;;5037926;28;20086;-59
2022/03/02 04:16:36;;;;;;;63.10;23.45;;;;;;;;;;5024618;28;20036;-60
2022/03/02 04:19:04;;;;;;;63.80;22.20;;;;;;;;;;5029222;28;20043;-60
2022/03/02 04:21:30;;;;;;;66.45;21.95;;;;;;;;;;5037346;28;20036;-60
2022/03/02 04:23:56;;;;;;;61.95;23.63;;;;;;;;;;5039835;28;20086;-61
2022/03/02 04:26:21;;;;;;;60.72;22.85;;;;;;;;;;5037669;28;20041;-60
2022/03/02 04:28:46;;;;;;;69.80;22.85;;;;;;;;;;5027381;28;20038;-60
2022/03/02 04:31:14;;;;;;;56.28;22.65;;;;;;;;;;5037378;28;20062;-60
2022/03/02 04:33:43;;;;;;;65.00;22.85;;;;;;;;;;5038789;28;20043;-60
2022/03/02 04:36:09;;;;;;;64.63;24.13;;;;;;;;;;5036256;28;20037;-60
2022/03/02 04:38:35;;;;;;;60.35;23.38;;;;;;;;;;5036254;28;20036;-60
2022/03/02 04:41:03;;;;;;;65.43;23.15;;;;;;;;;;5039127;28;20040;-60
2022/03/02 04:43:36;;;;;;;62.50;23.20;;;;;;;;;;5038354;28;22656;-60
2022/03/02 04:46:03;;;;;;;58.75;21.85;;;;;;;;;;5038428;28;20029;-60
2022/03/02 04:48:29;;;;;;;59.33;22.75;;;;;;;;;;5038131;28;20043;-59
2022/03/02 04:50:57;;;;;;;58.40;21.63;;;;;;;;;;5038373;28;20040;-60
2022/03/02 04:53:24;;;;;;;68.60;23.00;;;;;;;;;;5037939;28;20152;-60
2022/03/02 04:55:53;;;;;;;64.53;23.55;;;;;;;;;;5038974;28;20132;-59
2022/03/02 04:58:18;;;;;;;57.60;22.00;;;;;;;;;;5035539;28;20068;-60
2022/03/02 05:00:46;;;;;;;59.42;23.42;;;;;;;;;;5038099;28;20047;-59
2022/03/02 05:03:17;;;;;;;64.90;21.92;;;;;;;;;;5035425;28;20049;-60
2022/03/02 05:05:42;;;;;;;57.95;21.55;;;;;;;;;;5045164;28;20111;-61
2022/03/02 05:08:10;;;;;;;66.18;24.55;;;;;;;;;;5023621;28;20033;-59
2022/03/02 05:10:35;;;;;;;61.13;24.10;;;;;;;;;;5036821;28;20040;-61
2022/03/02 05:13:04;;;;;;;54.97;21.75;;;;;;;;;;5037071;28;20043;-60
2022/03/02 05:15:32;;;;;;;57.33;22.80;;;;;;;;;;5034034;28;20106;-60
2022/03/02 05:17:58;;;;;;;56.50;23.92;;;;;;;;;;5039754;28;20029;-60
2022/03/02 05:20:26;;;;;;;55.70;21.42;;;;;;;;;;5040571;28;20041;-61
2022/03/02 05:22:53;;;;;;;53.80;22.13;;;;;;;;;;5038851;28;20407;-61
2022/03/02 05:25:24;;;;;;;60.97;22.88;;;;;;;;;;5035762;28;20446;-60
2022/03/02 05:27:52;;;;;;;54.10;21.55;;;;;;;;;;5042406;28;20036;-61
2022/03/02 05:30:19;;;;;;;66.45;23.02;;;;;;;;;;5039778;28;20037;-60
2022/03/02 05:32:52;;;;;;;65.60;20.38;;;;;;;;;;5044037;28;20031;-60
2022/03/02 05:35:20;;;;;;;66.15;22.15;;;;;;;;;;5039335;28;20717;-61
2022/03/02 05:37:50;;;;;;;48.13;19.40;;;;;;;;;;5042868;28;20025;-60
2022/03/02 05:40:17;;;;;;;62.10;21.17;;;;;;;;;;5039225;28;20045;-60
2022/03/02 05:42:42;;;;;;;58.25;21.98;;;;;;;;;;5040147;28;20032;-60
2022/03/02 05:45:18;;;;;;;53.33;23.05;;;;;;;;;;5045190;28;20043;-60
2022/03/02 05:47:45;;;;;;;51.42;21.38;;;;;;;;;;5046396;28;20112;-60
2022/03/02 05:50:13;;;;;;;61.35;22.80;;;;;;;;;;5039561;28;20061;-60
2022/03/02 05:52:41;;;;;;;61.95;22.48;;;;;;;;;;5023316;28;20119;-60
2022/03/02 05:55:08;;;;;;;51.38;20.52;;;;;;;;;;5039105;28;20090;-61
2022/03/02 05:57:39;;;;;;;49.58;20.42;;;;;;;;;;5036584;28;20079;-60
2022/03/02 06:00:08;;;;;;;55.10;19.77;;;;;;;;;;5037391;28;20047;-60
2022/03/02 06:02:33;;;;;;;57.47;22.50;;;;;;;;;;5018487;28;20157;-61
2022/03/02 06:04:59;;;;;;;59.72;20.77;;;;;;;;;;5039528;28;20029;-60
2022/03/02 06:07:25;;;;;;;55.33;20.83;;;;;;;;;;5030767;28;20040;-60
2022/03/02 06:09:51;;;;;;;57.55;23.50;;;;;;;;;;5038831;28;20738;-60
2022/03/02 06:12:19;;;;;;;63.83;21.25;;;;;;;;;;5040399;28;20067;-60
2022/03/02 06:14:45;;;;;;;66.50;24.83;;;;;;;;;;5038316;28;20036;-60
2022/03/02 06:17:11;;;;;;;67.18;22.77;;;;;;;;;;5039753;28;20086;-60
2022/03/02 06:19:41;;;;;;;70.28;25.85;;;;;;;;;;5040608;28;20040;-60
2022/03/02 06:22:07;;;;;;;63.83;23.88;;;;;;;;;;5039367;28;20032;-60
2022/03/02 06:24:34;;;;;;;66.75;24.13;;;;;;;;;;5038396;28;20039;-61
2022/03/02 06:27:02;;;;;;;54.83;21.92;;;;;;;;;;5045977;28;20039;-60
2022/03/02 06:29:27;;;;;;;52.08;18.77;;;;;;;;;;5040585;28;20029;-61
2022/03/02 06:31:53;;;;;;;53.33;22.38;;;;;;;;;;5040036;28;20622;-59
2022/03/02 06:34:18;;;;;;;58.15;23.33;;;;;;;;;;5038040;28;20048;-59
2022/03/02 06:36:50;;;;;;;62.05;22.75;;;;;;;;;;5019977;28;20033;-60
2022/03/02 06:39:19;;;;;;;60.33;23.65;;;;;;;;;;5036246;28;20044;-62
2022/03/02 06:42:09;;;;;;;58.95;21.35;;;;;;;;;;5038621;28;20039;-60
2022/03/02 06:44:35;;;;;;;43.72;19.90;;;;;;;;;;5041193;28;20032;-61
2022/03/02 06:47:09;;;;;;;54.38;21.85;;;;;;;;;;5037525;28;20061;-61
2022/03/02 06:49:53;;;;;;;62.25;23.00;;;;;;;;;;5041489;28;20031;-60
2022/03/02 06:52:19;;;;;;;56.50;22.20;;;;;;;;;;5040166;28;20140;-59
2022/03/02 06:54:48;;;;;;;54.67;22.17;;;;;;;;;;5038262;28;20152;-61
2022/03/02 06:57:15;;;;;;;59.90;22.13;;;;;;;;;;5039618;28;20517;-60
2022/03/02 06:59:44;;;;;;;56.97;23.20;;;;;;;;;;5023728;28;20028;-60
2022/03/02 07:02:11;;;;;;;58.92;21.40;;;;;;;;;;5040754;28;20045;-61
2022/03/02 07:04:40;;;;;;;52.45;21.83;;;;;;;;;;5040534;28;20028;-61
2022/03/02 07:07:07;;;;;;;51.65;20.85;;;;;;;;;;5039869;28;20033;-61
2022/03/02 07:09:37;;;;;;;63.08;22.92;;;;;;;;;;5037952;28;20896;-60
2022/03/02 07:12:03;;;;;;;51.63;20.58;;;;;;;;;;5045487;28;20043;-61
2022/03/02 07:14:29;;;;;;;54.47;22.98;;;;;;;;;;5038848;28;20463;-59
2022/03/02 07:16:58;;;;;;;52.65;20.90;;;;;;;;;;5039049;28;20027;-59
2022/03/02 07:19:23;;;;;;;65.15;22.90;;;;;;;;;;5035389;28;20086;-59
2022/03/02 07:21:50;;;;;;;51.30;23.17;;;;;;;;;;5012499;28;20503;-60
2022/03/02 07:24:17;;;;;;;50.33;22.13;;;;;;;;;;5042788;28;20032;-60
2022/03/02 07:26:51;;;;;;;54.92;22.52;;;;;;;;;;5037570;28;20060;-60
2022/03/02 07:29:18;;;;;;;56.80;21.13;;;;;;;;;;5039022;28;20033;-61
2022/03/02 07:31:48;;;;;;;49.33;20.90;;;;;;;;;;5038122;28;20353;-62
2022/03/02 07:34:16;;;;;;;55.20;23.17;;;;;;;;;;5038641;28;21326;-59
2022/03/02 07:36:46;;;;;;;50.08;21.63;;;;;;;;;;5034265;28;20039;-60
2022/03/02 07:39:14;;;;;;;47.10;19.73;;;;;;;;;;5037766;28;20399;-60
2022/03/02 07:41:40;;;;;;;48.47;20.08;;;;;;;;;;5040332;28;20032;-60
2022/03/02 07:44:05;;;;;;;44.72;19.70;;;;;;;;;;5037745;28;20387;-60
2022/03/02 07:47:11;;;;;;;46.33;19.15;;;;;;;;;;5036711;28;20105;-60
2022/03/02 07:49:36;;;;;;;46.45;17.02;;;;;;;;;;5037213;28;20029;-60
2022/03/02 07:52:06;;;;;;;40.05;17.90;;;;;;;;;;5022596;28;20036;-60
2022/03/02 07:54:35;;;;;;;43.17;18.58;;;;;;;;;;5038121;28;20600;-61
2022/03/02 07:57:04;;;;;;;41.60;18.10;;;;;;;;;;5039247;28;20059;-61
2022/03/02 07:59:43;;;;;;;40.08;17.70;;;;;;;;;;5038668;28;20523;-59
2022/03/02 08:02:12;;;;;;;37.90;18.73;;;;;;;;;;5028229;28;20032;-60
2022/03/02 08:04:38;;;;;;;45.70;18.85;;;;;;;;;;5038419;28;20475;-61
2022/03/02 08:07:07;;;;;;;40.45;18.40;;;;;;;;;;5042515;28;22445;-59
2022/03/02 08:09:32;;;;;;;41.75;18.67;;;;;;;;;;5025119;28;20036;-60
2022/03/02 08:12:01;;;;;;;34.75;16.88;;;;;;;;;;5037516;28;20097;-60
2022/03/02 08:14:29;;;;;;;37.55;17.90;;;;;;;;;;5037190;28;20036;-60
2022/03/02 08:16:54;;;;;;;42.42;18.50;;;;;;;;;;5039373;28;21653;-60
2022/03/02 08:19:23;;;;;;;42.95;19.45;;;;;;;;;;5038490;28;20452;-61
2022/03/02 08:21:55;;;;;;;39.60;18.00;;;;;;;;;;5037377;28;20091;-60
2022/03/02 08:24:23;;;;;;;41.92;19.17;;;;;;;;;;5037122;28;20029;-61
2022/03/02 08:26:52;;;;;;;47.00;19.55;;;;;;;;;;5043300;28;20500;-61
2022/03/02 08:29:19;;;;;;;37.88;18.80;;;;;;;;;;5036150;28;20139;-61
2022/03/02 08:31:48;;;;;;;42.63;20.08;;;;;;;;;;5039837;28;20082;-60
2022/03/02 08:34:18;;;;;;;43.13;19.58;;;;;;;;;;5036069;28;20051;-61
2022/03/02 08:36:46;;;;;;;38.47;17.85;;;;;;;;;;5036786;28;20037;-61
2022/03/02 08:39:12;;;;;;;39.63;19.23;;;;;;;;;;5034410;28;20044;-61
2022/03/02 08:41:41;;;;;;;36.88;18.52;;;;;;;;;;5036740;28;20067;-61
2022/03/02 08:44:12;;;;;;;35.90;18.45;;;;;;;;;;5038018;28;20649;-61
2022/03/02 08:46:37;;;;;;;37.75;18.75;;;;;;;;;;5025238;28;20036;-61
2022/03/02 08:49:05;;;;;;;36.15;18.48;;;;;;;;;;5043632;28;20109;-61
2022/03/02 08:51:33;;;;;;;36.40;18.63;;;;;;;;;;5040724;28;20467;-60
2022/03/02 08:54:03;;;;;;;41.25;18.60;;;;;;;;;;5038128;28;20035;-61
2022/03/02 08:56:32;;;;;;;38.67;18.80;;;;;;;;;;5021876;28;20217;-60
2022/03/02 08:59:00;;;;;;;34.05;17.58;;;;;;;;;;5038076;28;20128;-60
2022/03/02 09:01:27;;;;;;;39.35;18.25;;;;;;;;;;5038072;28;20218;-61
2022/03/02 09:04:00;;;;;;;39.92;17.80;;;;;;;;;;5037196;28;20098;-60
2022/03/02 09:06:29;;;;;;;37.40;17.80;;;;;;;;;;5037439;28;20032;-60
2022/03/02 09:08:59;;;;;;;34.25;16.80;;;;;;;;;;5031897;28;20033;-60
2022/03/02 09:11:25;;;;;;;35.03;17.08;;;;;;;;;;5035349;28;20381;-61
2022/03/02 09:13:53;;;;;;;34.22;16.75;;;;;;;;;;5021084;28;20039;-60
2022/03/02 09:16:18;;;;;;;35.65;16.50;;;;;;;;;;5022876;28;20037;-61
2022/03/02 09:18:47;;;;;;;39.08;17.45;;;;;;;;;;5036640;28;20044;-60
2022/03/02 09:21:19;;;;;;;37.90;18.42;;;;;;;;;;5037273;28;20035;-61
2022/03/02 09:23:47;;;;;;;33.17;16.45;;;;;;;;;;5035747;28;20565;-60
2022/03/02 09:26:17;;;;;;;29.55;15.23;;;;;;;;;;5036081;28;20038;-60
2022/03/02 09:28:50;;;;;;;31.63;15.75;;;;;;;;;;5035344;28;20044;-60
2022/03/02 09:31:17;;;;;;;29.23;16.00;;;;;;;;;;5036635;28;20067;-60
2022/03/02 09:33:49;;;;;;;32.60;15.38;;;;;;;;;;5020028;28;20044;-60
2022/03/02 09:36:21;;;;;;;31.67;15.68;;;;;;;;;;5035750;28;20040;-61
2022/03/02 09:38:48;;;;;;;35.83;15.73;;;;;;;;;;5036606;28;20028;-59
2022/03/02 09:41:18;;;;;;;30.80;15.25;;;;;;;;;;5035965;28;21180;-60
2022/03/02 09:43:48;;;;;;;26.40;14.43;;;;;;;;;;5037853;28;20032;-60
2022/03/02 09:46:17;;;;;;;33.28;15.65;;;;;;;;;;5025169;28;20599;-60
2022/03/02 09:48:47;;;;;;;26.88;14.43;;;;;;;;;;5035145;28;20028;-58
2022/03/02 09:51:17;;;;;;;27.50;14.13;;;;;;;;;;5040644;28;20036;-60
2022/03/02 09:53:47;;;;;;;31.08;16.13;;;;;;;;;;5039920;28;20036;-60
2022/03/02 09:56:14;;;;;;;28.55;14.07;;;;;;;;;;5036731;28;21622;-60
2022/03/02 09:58:41;;;;;;;28.45;14.73;;;;;;;;;;5036713;28;20025;-59
2022/03/02 10:01:17;;;;;;;30.27;13.95;;;;;;;;;;5020049;28;20075;-59
2022/03/02 10:03:47;;;;;;;31.60;14.95;;;;;;;;;;5024410;28;20045;-59
2022/03/02 10:06:13;;;;;;;30.15;14.82;;;;;;;;;;5037064;28;20048;-59
2022/03/02 10:08:44;;;;;;;28.58;14.65;;;;;;;;;;5036379;28;20032;-59
2022/03/02 10:11:12;;;;;;;29.50;14.90;;;;;;;;;;5039276;28;20033;-60
2022/03/02 10:13:41;;;;;;;29.50;14.10;;;;;;;;;;5040955;28;20951;-60
2022/03/02 10:16:08;;;;;;;26.30;13.40;;;;;;;;;;5040811;28;20086;-60
2022/03/02 10:18:38;;;;;;;25.77;13.93;;;;;;;;;;5042628;28;20063;-59
2022/03/02 10:21:08;;;;;;;24.92;13.82;;;;;;;;;;5042884;28;21389;-59
2022/03/02 10:23:41;;;;;;;29.77;13.38;;;;;;;;;;5026377;28;20151;-59
2022/03/02 10:26:21;;;;;;;25.17;12.80;;;;;;;;;;5036869;28;20033;-59
2022/03/02 10:29:05;;;;;;;28.60;13.05;;;;;;;;;;5047559;28;20107;-59
2022/03/02 10:31:36;;;;;;;28.00;14.48;;;;;;;;;;5041485;28;20028;-65
2022/03/02 10:34:17;;;;;;;32.70;13.23;;;;;;;;;;5053128;28;20041;-58
2022/03/02 10:36:50;;;;;;;26.88;14.68;;;;;;;;;;5040962;28;20043;-59
2022/03/02 10:39:42;;;;;;;26.73;13.60;;;;;;;;;;5038729;28;20036;-58
2022/03/02 10:42:14;;;;;;;27.73;12.80;;;;;;;;;;5039892;28;20056;-60
2022/03/02 10:44:49;;;;;;;24.35;13.70;;;;;;;;;;5041311;28;20036;-58
2022/03/02 10:47:20;;;;;;;28.15;14.48;;;;;;;;;;5040751;28;20040;-58
2022/03/02 10:49:48;;;;;;;30.77;14.10;;;;;;;;;;5042088;28;20124;-59
2022/03/02 10:52:14;;;;;;;27.83;13.95;;;;;;;;;;5044989;28;20168;-59
2022/03/02 10:54:41;;;;;;;23.10;12.48;;;;;;;;;;5038702;28;20065;-59
2022/03/02 10:57:09;;;;;;;22.90;12.75;;;;;;;;;;5039719;28;20062;-59
2022/03/02 10:59:35;;;;;;;25.98;12.73;;;;;;;;;;5022460;28;20121;-59
2022/03/02 11:02:01;;;;;;;26.60;13.30;;;;;;;;;;5055481;28;20040;-60
2022/03/02 11:04:28;;;;;;;24.75;13.43;;;;;;;;;;5028198;28;20908;-59
2022/03/02 11:06:59;;;;;;;20.90;12.82;;;;;;;;;;5039972;28;20032;-60
2022/03/02 11:09:25;;;;;;;23.75;14.02;;;;;;;;;;5038008;28;20240;-58
2022/03/02 11:11:52;;;;;;;22.05;13.48;;;;;;;;;;5039377;28;20104;-60
2022/03/02 11:14:20;;;;;;;22.48;12.50;;;;;;;;;;5039564;28;20074;-59
2022/03/02 11:16:50;;;;;;;24.02;12.55;;;;;;;;;;5038617;28;20908;-60
2022/03/02 11:19:16;;;;;;;23.65;12.88;;;;;;;;;;5038522;28;20039;-58
2022/03/02 11:21:44;;;;;;;25.27;13.38;;;;;;;;;;5039477;28;20090;-59
2022/03/02 11:24:16;;;;;;;29.48;13.10;;;;;;;;;;5052717;28;20166;-59
2022/03/02 11:26:43;;;;;;;25.95;13.88;;;;;;;;;;5038554;28;20020;-59
2022/03/02 11:29:13;;;;;;;24.83;12.70;;;;;;;;;;5036677;28;20128;-59
2022/03/02 11:31:41;;;;;;;21.23;11.63;;;;;;;;;;5036540;28;20434;-59
2022/03/02 11:34:16;;;;;;;25.45;12.63;;;;;;;;;;5052028;28;20533;-59
2022/03/02 11:36:50;;;;;;;20.08;11.48;;;;;;;;;;5028657;28;20033;-59
2022/03/02 11:39:25;;;;;;;26.70;12.07;;;;;;;;;;5039095;28;20040;-59
2022/03/02 11:41:53;;;;;;;21.27;11.65;;;;;;;;;;5039737;28;20033;-60
2022/03/02 11:44:34;;;;;;;23.95;11.95;;;;;;;;;;5038413;28;20708;-60
2022/03/02 11:47:07;;;;;;;19.77;11.60;;;;;;;;;;5036640;28;20098;-60
2022/03/02 11:49:41;;;;;;;19.88;11.35;;;;;;;;;;5038034;28;20206;-59
2022/03/02 11:52:15;;;;;;;20.63;11.45;;;;;;;;;;5040592;28;20029;-59
2022/03/02 11:54:43;;;;;;;;;;;;;;;;;;5036494;28;20103;-59
2022/03/02 11:57:12;;;;;;;19.88;10.23;;;;;;;;;;5039729;28;19917;-60
2022/03/02 11:59:39;;;;;;;21.58;10.65;;;;;;;;;;5037604;28;20159;-60
2022/03/02 12:02:25;;;;;;;19.83;10.32;;;;;;;;;;5040122;28;20206;-60
2022/03/02 12:04:58;;;;;;;21.42;11.45;;;;;;;;;;5038617;28;20243;-60
2022/03/02 12:07:36;;;;;;;16.65;10.57;;;;;;;;;;5040878;28;20404;-58
2022/03/02 12:10:04;;;;;;;18.20;10.90;;;;;;;;;;5038544;28;20025;-58
2022/03/02 12:12:39;;;;;;;20.63;11.13;;;;;;;;;;5038217;28;20036;-59
2022/03/02 12:15:08;;;;;;;17.83;11.23;;;;;;;;;;5038725;28;20048;-59
2022/03/02 12:17:36;;;;;;;18.88;10.40;;;;;;;;;;5036727;28;20047;-60
2022/03/02 12:20:04;;;;;;;17.38;10.30;;;;;;;;;;5005042;28;20117;-60
2022/03/02 12:22:31;;;;;;;26.27;12.65;;;;;;;;;;5035615;28;20045;-60
2022/03/02 12:24:59;;;;;;;19.73;10.75;;;;;;;;;;5035217;28;20094;-60
2022/03/02 12:27:25;;;;;;;16.15;10.68;;;;;;;;;;5037048;28;20025;-60
2022/03/02 12:30:01;;;;;;;19.15;10.88;;;;;;;;;;5036540;28;20020;-60
2022/03/02 12:32:29;;;;;;;19.95;10.90;;;;;;;;;;5038009;28;20040;-60
2022/03/02 12:34:56;;;;;;;16.80;11.05;;;;;;;;;;5037220;28;20060;-59
2022/03/02 12:37:24;;;;;;;18.33;10.23;;;;;;;;;;5038917;28;20043;-59
2022/03/02 12:39:50;;;;;;;16.90;10.00;;;;;;;;;;5037217;28;20036;-58
2022/03/02 12:42:16;;;;;;;22.40;10.43;;;;;;;;;;5038344;28;21332;-59
2022/03/02 12:44:46;;;;;;;20.73;10.52;;;;;;;;;;5037724;28;20033;-58
2022/03/02 12:47:14;;;;;;;18.98;10.25;;;;;;;;;;5036392;28;20636;-57
2022/03/02 12:49:40;;;;;;;21.13;10.27;;;;;;;;;;5038187;28;20772;-59
2022/03/02 12:52:06;;;;;;;19.85;11.60;;;;;;;;;;5037292;28;20049;-60
2022/03/02 12:54:38;;;;;;;21.17;11.50;;;;;;;;;;5036153;28;20032;-60
2022/03/02 12:57:08;;;;;;;22.17;10.48;;;;;;;;;;5036905;28;20040;-59
2022/03/02 12:59:37;;;;;;;22.33;10.40;;;;;;;;;;5037058;28;20032;-60
2022/03/02 13:02:06;;;;;;;19.80;11.30;;;;;;;;;;5038557;28;20059;-59
2022/03/02 13:04:54;;;;;;;16.67;10.10;;;;;;;;;;5039969;28;20712;-60
2022/03/02 13:07:29;;;;;;;21.77;11.30;;;;;;;;;;5036137;28;20746;-59
2022/03/02 13:09:58;;;;;;;20.13;11.98;;;;;;;;;;5035113;28;20514;-60
2022/03/02 13:12:34;;;;;;;17.63;10.85;;;;;;;;;;5050216;28;20632;-58
2022/03/02 13:15:00;;;;;;;18.92;11.38;;;;;;;;;;5036377;28;20033;-59
2022/03/02 13:17:27;;;;;;;18.05;10.70;;;;;;;;;;5036360;28;21098;-59
2022/03/02 13:19:56;;;;;;;32.58;11.95;;;;;;;;;;5033810;28;20040;-59
2022/03/02 13:22:35;;;;;;;19.58;11.50;;;;;;;;;;5037511;28;20040;-59
2022/03/02 13:25:08;;;;;;;18.67;11.57;;;;;;;;;;5036304;28;20561;-59
2022/03/02 13:27:36;;;;;;;21.67;11.90;;;;;;;;;;5036861;28;20240;-59
2022/03/02 13:30:02;;;;;;;18.67;11.70;;;;;;;;;;5020852;28;20044;-59
2022/03/02 13:32:47;;;;;;;19.80;11.43;;;;;;;;;;5035191;28;20798;-59
2022/03/02 13:35:18;;;;;;;18.50;11.15;;;;;;;;;;5034376;28;20047;-59
2022/03/02 13:38:03;;;;;;;20.02;11.23;;;;;;;;;;5036832;28;21847;-60
2022/03/02 13:40:34;;;;;;;19.35;11.88;;;;;;;;;;5036995;28;20032;-59
2022/03/02 13:43:05;;;;;;;19.55;12.00;;;;;;;;;;5039398;28;20047;-59
2022/03/02 13:45:35;;;;;;;20.30;11.40;;;;;;;;;;5038459;28;20562;-59
2022/03/02 13:48:12;;;;;;;19.52;11.75;;;;;;;;;;5041859;28;20025;-58
2022/03/02 13:50:55;;;;;;;21.85;11.65;;;;;;;;;;5041334;28;20056;-59
2022/03/02 13:53:33;;;;;;;21.98;11.75;;;;;;;;;;5040734;28;20079;-60
2022/03/02 13:56:03;;;;;;;17.45;10.50;;;;;;;;;;5040582;28;20035;-58
2022/03/02 13:58:31;;;;;;;16.85;10.35;;;;;;;;;;5040153;28;20637;-59
2022/03/02 14:01:14;;;;;;;19.27;11.32;;;;;;;;;;5039055;28;21968;-59
2022/03/02 14:03:45;;;;;;;17.83;11.50;;;;;;;;;;5039173;28;20132;-59
2022/03/02 14:06:12;;;;;;;18.27;11.80;;;;;;;;;;5031811;28;20040;-60
2022/03/02 14:08:44;;;;;;;21.95;11.55;;;;;;;;;;5038954;28;20020;-60
2022/03/02 14:11:30;;;;;;;20.73;12.25;;;;;;;;;;5038876;28;20029;-60
2022/03/02 14:13:56;;;;;;;19.63;10.90;;;;;;;;;;5024814;28;20040;-60
2022/03/02 14:16:24;;;;;;;20.95;11.65;;;;;;;;;;5040878;28;20033;-58
2022/03/02 14:19:02;;;;;;;17.70;10.30;;;;;;;;;;5039679;28;20037;-59
2022/03/02 14:21:32;;;;;;;20.88;12.15;;;;;;;;;;5042242;28;20036;-59
2022/03/02 14:24:07;;;;;;;21.98;12.18;;;;;;;;;;5037094;28;20474;-60
2022/03/02 14:26:35;;;;;;;22.77;11.80;;;;;;;;;;5022307;28;20033;-59
2022/03/02 14:29:01;;;;;;;24.30;11.57;;;;;;;;;;5039672;28;20035;-60